Time;durP1;ratioP1;P1;durP2;ratioP2;P2;SDS_P1;SDS_P2;PMS_P1;PMS_P2;Temp;Humidity;BMP_temperature;BMP_pressure;BME280_temperature;BME280_humidity;BME280_pressure;Samples;Min_cycle;Max_cycle;Signal;HPM_P1;HPM_P2
2023/04/19 00:00:11;;;;;;;13.13;8.73;;;;;;;-146.25;90.87;52262.75;2096633;28;25803;-69
2023/04/19 00:01:13;;;;;;;14.40;8.38;;;;;;;-146.25;90.49;52283.03;2096723;28;20037;-71
2023/04/19 00:02:15;;;;;;;12.88;8.70;;;;;;;-146.25;91.40;52266.81;2096698;28;26051;-71
2023/04/19 00:03:17;;;;;;;13.07;8.75;;;;;;;-146.25;91.51;52236.41;2096411;28;29364;-71
2023/04/19 00:04:19;;;;;;;13.70;8.60;;;;;;;-146.25;91.85;52266.81;2095934;28;32548;-70
2023/04/19 00:05:26;;;;;;;13.57;8.90;;;;;;;-146.25;91.88;52234.38;2095928;28;30144;-71
2023/04/19 00:06:29;;;;;;;12.57;8.75;;;;;;;-146.25;92.16;52230.31;2096651;28;26879;-71
2023/04/19 00:07:31;;;;;;;12.32;9.00;;;;;;;-146.25;92.41;52224.25;2096362;28;30359;-71
2023/04/19 00:08:33;;;;;;;14.13;9.45;;;;;;;-146.25;92.98;52248.56;2096145;28;20041;-71
2023/04/19 00:09:35;;;;;;;13.05;8.80;;;;;;;-146.25;93.33;52274.94;2096019;28;30816;-71
2023/04/19 00:10:38;;;;;;;13.00;9.68;;;;;;;-146.25;93.14;52258.72;2096646;28;29262;-71
2023/04/19 00:11:40;;;;;;;14.50;9.02;;;;;;;-146.25;93.18;52244.50;2096447;28;29836;-71
2023/04/19 00:12:42;;;;;;;15.88;9.38;;;;;;;-146.25;93.75;52248.56;2096614;28;25389;-71
2023/04/19 00:13:46;;;;;;;13.90;9.05;;;;;;;-146.25;93.83;52250.59;2097028;28;20884;-71
2023/04/19 00:14:47;;;;;;;12.48;9.30;;;;;;;-146.25;93.77;52238.44;2096817;28;30134;-71
2023/04/19 00:15:49;;;;;;;12.80;8.18;;;;;;;-146.25;94.17;52270.88;2096519;28;20033;-71
2023/04/19 00:16:51;;;;;;;13.82;9.27;;;;;;;-146.25;93.57;52236.41;2097132;28;20359;-71
2023/04/19 00:17:53;;;;;;;16.80;9.50;;;;;;;-146.25;94.14;52266.81;2087226;28;32053;-71
2023/04/19 00:18:55;;;;;;;12.32;8.77;;;;;;;-146.25;94.49;52238.44;2087912;28;20053;-71
2023/04/19 00:19:57;;;;;;;15.20;9.48;;;;;;;-146.25;94.84;52254.66;2095544;28;35776;-70
2023/04/19 00:21:01;;;;;;;12.43;9.40;;;;;;;-146.25;94.43;52242.50;2096082;28;20466;-70
2023/04/19 00:22:03;;;;;;;15.90;9.13;;;;;;;-146.25;94.04;52242.50;2096075;28;33986;-71
2023/04/19 00:23:04;;;;;;;14.93;10.32;;;;;;;-146.25;94.50;52238.44;2095415;28;34174;-70
2023/04/19 00:24:06;;;;;;;15.20;9.65;;;;;;;-146.25;94.87;52240.47;2096666;28;20502;-71
2023/04/19 00:25:08;;;;;;;11.75;9.68;;;;;;;-146.25;94.85;52234.38;2097174;28;20873;-71
2023/04/19 00:26:10;;;;;;;17.23;10.45;;;;;;;-146.25;94.37;52246.53;2095847;28;37908;-71
2023/04/19 00:27:13;;;;;;;17.50;10.00;;;;;;;-146.25;93.81;52264.78;2096016;28;20036;-71
2023/04/19 00:28:15;;;;;;;15.45;9.90;;;;;;;-146.25;94.37;52274.94;2096052;28;20836;-71
2023/04/19 00:29:19;;;;;;;13.57;10.35;;;;;;;-146.25;94.36;52236.41;2097179;28;20057;-71
2023/04/19 00:30:23;;;;;;;13.60;9.60;;;;;;;-146.25;93.72;52266.81;2095623;28;27597;-71
2023/04/19 00:31:25;;;;;;;14.50;10.15;;;;;;;-146.25;94.31;52222.22;2087906;28;20042;-71
2023/04/19 00:32:26;;;;;;;17.25;10.32;;;;;;;-146.25;93.68;52266.81;2095729;28;29866;-71
2023/04/19 00:33:28;;;;;;;15.77;10.45;;;;;;;-146.25;93.28;52222.22;2096262;28;20064;-71
2023/04/19 00:34:31;;;;;;;16.92;10.20;;;;;;;-146.25;93.18;52250.59;2088377;28;20045;-69
2023/04/19 00:35:33;;;;;;;18.95;10.65;;;;;;;-146.25;93.12;52274.94;2095535;28;38805;-72
2023/04/19 00:36:34;;;;;;;14.55;10.13;;;;;;;-146.25;93.38;52246.53;2096586;28;20037;-71
2023/04/19 00:37:36;;;;;;;18.27;10.48;;;;;;;-146.25;93.24;52246.53;2095777;28;32094;-71
2023/04/19 00:38:38;;;;;;;13.75;9.75;;;;;;;-146.25;93.78;52256.69;2095640;28;20068;-71
2023/04/19 00:39:40;;;;;;;17.10;10.25;;;;;;;-146.25;94.05;52197.88;2096514;28;22232;-71
2023/04/19 00:40:41;;;;;;;16.52;10.25;;;;;;;-146.25;93.26;52272.91;2096507;28;25240;-71
2023/04/19 00:41:43;;;;;;;14.73;10.20;;;;;;;-146.25;93.60;52220.19;2096657;28;20040;-71
2023/04/19 00:42:45;;;;;;;15.63;10.00;;;;;;;-146.25;93.57;52260.72;2095726;28;29799;-71
2023/04/19 00:43:46;;;;;;;16.70;9.57;;;;;;;-146.25;93.26;52197.88;2096787;28;27254;-71
2023/04/19 00:44:48;;;;;;;16.63;10.32;;;;;;;-146.25;93.05;52242.50;2087060;28;30798;-71
2023/04/19 00:45:50;;;;;;;15.65;10.50;;;;;;;-146.25;92.95;52242.50;2087255;28;33859;-71
2023/04/19 00:46:53;;;;;;;16.30;10.18;;;;;;;-146.25;93.51;52260.72;2095996;28;20246;-71
2023/04/19 00:47:55;;;;;;;13.52;10.07;;;;;;;-146.25;93.00;52262.75;2087065;28;34429;-72
2023/04/19 00:48:58;;;;;;;12.35;9.50;;;;;;;-146.25;92.41;52270.88;2080147;28;23954;-70
2023/04/19 00:49:59;;;;;;;12.60;9.60;;;;;;;-146.25;91.98;52230.31;2072986;28;26144;-71
2023/04/19 00:51:02;;;;;;;13.38;9.48;;;;;;;-146.25;91.77;52238.44;2088485;28;38038;-72
2023/04/19 00:52:05;;;;;;;14.63;9.90;;;;;;;-146.25;92.43;52260.72;2098037;28;21115;-71
2023/04/19 00:53:07;;;;;;;12.68;9.32;;;;;;;-146.25;92.12;52254.66;2096717;28;27155;-70
2023/04/19 00:54:12;;;;;;;16.00;8.80;;;;;;;-146.25;91.80;52224.25;2096985;28;29332;-71
2023/04/19 00:55:14;;;;;;;14.43;8.65;;;;;;;-146.25;90.77;52250.59;2096854;28;31763;-71
2023/04/19 00:56:18;;;;;;;12.45;9.57;;;;;;;-146.25;90.67;52212.06;2097589;28;20067;-72
2023/04/19 00:57:20;;;;;;;12.30;8.77;;;;;;;-146.25;90.10;52248.56;2096817;28;33272;-71
2023/04/19 00:58:24;;;;;;;15.43;8.68;;;;;;;-146.25;90.41;52238.44;2096939;28;20075;-71
2023/04/19 00:59:26;;;;;;;13.48;9.35;;;;;;;-146.25;90.41;52258.72;2097132;28;33062;-71
2023/04/19 01:00:28;;;;;;;12.77;8.77;;;;;;;-146.25;89.82;52201.94;2089137;28;20786;-72
2023/04/19 01:01:29;;;;;;;15.50;8.60;;;;;;;-146.25;89.51;52250.59;2088278;28;29189;-71
2023/04/19 01:02:31;;;;;;;13.40;8.25;;;;;;;-146.25;89.25;52242.50;2097378;28;29281;-71
2023/04/19 01:03:35;;;;;;;15.52;8.50;;;;;;;-146.25;89.35;52250.59;2096748;28;25568;-71
2023/04/19 01:04:37;;;;;;;14.23;7.65;;;;;;;-146.25;88.85;52230.31;2089614;28;28582;-71
2023/04/19 01:05:40;;;;;;;11.75;8.25;;;;;;;-146.25;88.97;52258.72;2096922;28;20175;-71
2023/04/19 01:06:46;;;;;;;15.18;8.90;;;;;;;-146.25;88.40;52242.50;2096608;28;20041;-71
2023/04/19 01:07:48;;;;;;;13.50;7.97;;;;;;;-146.25;88.28;52230.31;2089398;28;26593;-71
2023/04/19 01:08:50;;;;;;;13.90;7.55;;;;;;;-146.25;87.37;52260.72;2088494;28;29439;-71
2023/04/19 01:09:55;;;;;;;12.82;7.82;;;;;;;-146.25;87.16;52246.53;2088780;28;24871;-71
2023/04/19 01:10:57;;;;;;;9.65;7.13;;;;;;;-146.25;87.16;52226.25;2088756;28;27957;-72
2023/04/19 01:12:01;;;;;;;12.27;8.05;;;;;;;-146.25;87.10;52242.50;2088424;28;24162;-71
2023/04/19 01:13:02;;;;;;;11.20;7.68;;;;;;;-146.25;87.42;52289.13;2097322;28;20151;-72
2023/04/19 01:14:06;;;;;;;11.70;7.22;;;;;;;-146.25;86.90;52244.50;2097570;28;20029;-71
2023/04/19 01:15:09;;;;;;;10.93;7.60;;;;;;;-146.25;86.84;52228.28;2089459;28;24543;-71
2023/04/19 01:16:11;;;;;;;12.50;7.43;;;;;;;-146.25;86.29;52260.72;2088323;28;36658;-71
2023/04/19 01:17:13;;;;;;;11.45;7.45;;;;;;;-146.25;86.10;52246.53;2089417;28;20050;-71
2023/04/19 01:18:15;;;;;;;11.32;6.95;;;;;;;-146.25;85.65;52256.69;2097160;28;20122;-71
2023/04/19 01:19:17;;;;;;;12.32;7.38;;;;;;;-146.25;85.97;52246.53;2089109;28;20192;-71
2023/04/19 01:20:19;;;;;;;9.65;6.60;;;;;;;-146.25;86.22;52252.63;2088454;28;22922;-71
2023/04/19 01:21:21;;;;;;;9.18;7.13;;;;;;;-146.25;86.24;52252.63;2097386;28;20044;-71
2023/04/19 01:22:27;;;;;;;9.07;6.13;;;;;;;-146.25;84.94;52197.88;2097030;28;20026;-71
2023/04/19 01:23:29;;;;;;;9.38;7.25;;;;;;;-146.25;84.87;52246.53;2089028;28;25765;-72
2023/04/19 01:24:32;;;;;;;11.40;6.75;;;;;;;-146.25;84.34;52289.13;2096553;28;30701;-72
2023/04/19 01:25:34;;;;;;;10.30;6.47;;;;;;;-146.25;84.19;52264.78;2088756;28;23821;-71
2023/04/19 01:26:36;;;;;;;10.05;6.38;;;;;;;-146.25;84.14;52224.25;2089272;28;25842;-72
2023/04/19 01:27:40;;;;;;;9.60;6.20;;;;;;;-146.25;83.47;52242.50;2097219;28;28475;-72
2023/04/19 01:28:42;;;;;;;13.15;6.78;;;;;;;-146.25;83.42;52264.78;2097812;28;20041;-72
2023/04/19 01:29:44;;;;;;;12.50;6.95;;;;;;;-146.25;83.89;52201.94;2097295;28;20881;-70
2023/04/19 01:30:46;;;;;;;11.52;7.15;;;;;;;-146.25;82.92;52242.50;2088525;28;20041;-71
2023/04/19 01:31:52;;;;;;;10.48;6.55;;;;;;;-146.25;83.57;52248.56;2096995;28;35241;-71
2023/04/19 01:32:54;;;;;;;9.60;6.35;;;;;;;-146.25;83.46;52291.16;2097717;28;29552;-72
2023/04/19 01:33:55;;;;;;;12.88;7.00;;;;;;;-146.25;82.97;52287.09;2088125;28;31029;-72
2023/04/19 01:34:57;;;;;;;9.43;6.13;;;;;;;-146.25;83.48;52230.31;2089268;28;20037;-71
2023/04/19 01:36:01;;;;;;;11.73;6.28;;;;;;;-146.25;83.35;52274.94;2097485;28;20037;-72
2023/04/19 01:37:03;;;;;;;10.10;6.18;;;;;;;-146.25;81.91;52234.38;2096906;28;25895;-71
2023/04/19 01:38:05;;;;;;;8.73;6.30;;;;;;;-146.25;82.61;52262.75;2097675;28;25237;-71
2023/04/19 01:39:07;;;;;;;9.02;6.65;;;;;;;-146.25;82.34;52254.66;2096993;28;36349;-71
2023/04/19 01:40:09;;;;;;;10.88;7.20;;;;;;;-146.25;82.64;52274.94;2098370;28;20041;-71
2023/04/19 01:41:11;;;;;;;10.00;6.60;;;;;;;-146.25;81.94;52234.38;2097287;28;27879;-71
2023/04/19 01:42:15;;;;;;;10.38;6.80;;;;;;;-146.25;81.85;52274.94;2096958;28;26678;-71
2023/04/19 01:43:17;;;;;;;9.18;6.80;;;;;;;-146.25;81.59;52274.94;2097134;28;22031;-71
2023/04/19 01:44:19;;;;;;;9.65;6.45;;;;;;;-146.25;81.86;52238.44;2097252;28;35906;-71
2023/04/19 01:45:21;;;;;;;11.27;6.57;;;;;;;-146.25;81.80;52230.31;2097119;28;20045;-71
2023/04/19 01:46:24;;;;;;;10.73;7.13;;;;;;;-146.25;81.74;52240.47;2089238;28;20034;-71
2023/04/19 01:47:26;;;;;;;11.38;8.07;;;;;;;-146.25;82.04;52258.72;2088594;28;24005;-72
2023/04/19 01:48:28;;;;;;;16.55;10.23;;;;;;;-146.25;81.51;52272.91;2088756;28;29324;-71
2023/04/19 01:49:30;;;;;;;15.25;10.70;;;;;;;-146.25;82.32;52246.53;2079806;28;34586;-71
2023/04/19 01:50:32;;;;;;;19.63;14.35;;;;;;;-146.25;82.00;52242.50;2073415;28;20050;-71
2023/04/19 01:51:33;;;;;;;22.27;16.67;;;;;;;-146.25;82.25;52250.59;2080328;28;20034;-72
2023/04/19 01:52:35;;;;;;;26.95;21.08;;;;;;;-146.25;82.01;52242.50;2080242;28;28304;-72
2023/04/19 01:53:38;;;;;;;31.10;23.40;;;;;;;-146.25;81.75;52244.50;2088678;28;20092;-71
2023/04/19 01:54:40;;;;;;;31.95;23.33;;;;;;;-146.25;82.34;52250.59;2088579;28;20129;-71
2023/04/19 01:55:44;;;;;;;29.25;21.38;;;;;;;-146.25;81.59;52246.53;2096794;28;20897;-71
2023/04/19 01:56:47;;;;;;;28.88;21.02;;;;;;;-146.25;81.70;52274.94;2097422;28;20063;-72
2023/04/19 01:57:51;;;;;;;31.95;21.52;;;;;;;-146.25;82.05;52246.53;2088376;28;20041;-72
2023/04/19 01:58:56;;;;;;;26.33;19.08;;;;;;;-146.25;81.44;52254.66;2081869;28;20991;-73
2023/04/19 01:59:58;;;;;;;27.33;18.70;;;;;;;-146.25;81.52;52258.72;2080863;28;20878;-71
2023/04/19 02:01:03;;;;;;;28.60;19.88;;;;;;;-146.25;81.05;52250.59;2087054;28;20050;-73
2023/04/19 02:02:07;;;;;;;34.25;21.65;;;;;;;-146.25;81.70;52268.84;2097109;28;20037;-71
2023/04/19 02:03:08;;;;;;;37.05;20.58;;;;;;;-146.25;81.70;52258.72;2088382;28;24339;-71
2023/04/19 02:04:12;;;;;;;33.55;20.42;;;;;;;-146.25;81.92;52248.56;2089040;28;20834;-71
2023/04/19 02:05:15;;;;;;;34.85;20.38;;;;;;;-146.25;81.18;52274.94;2088640;28;20882;-72
2023/04/19 02:06:16;;;;;;;30.75;19.10;;;;;;;-146.25;81.86;52258.72;2088631;28;20037;-72
2023/04/19 02:07:20;;;;;;;26.25;16.85;;;;;;;-146.25;81.73;52236.41;2080121;28;34149;-70
2023/04/19 02:08:22;;;;;;;24.60;16.52;;;;;;;-146.25;81.42;52264.78;2080801;28;20038;-72
2023/04/19 02:09:24;;;;;;;21.30;14.35;;;;;;;-146.25;82.11;52246.53;2080249;28;20076;-70
2023/04/19 02:10:26;;;;;;;18.30;12.20;;;;;;;-146.25;81.84;52210.03;2080832;28;20116;-71
2023/04/19 02:11:29;;;;;;;18.88;12.30;;;;;;;-146.25;81.61;52274.94;2080541;28;20132;-72
2023/04/19 02:12:32;;;;;;;14.85;10.35;;;;;;;-146.25;81.58;52238.44;2080375;28;21924;-72
2023/04/19 02:13:36;;;;;;;14.40;9.07;;;;;;;-146.25;81.99;52252.63;2072960;28;20105;-71
2023/04/19 02:14:43;;;;;;;17.00;9.38;;;;;;;-146.25;81.06;52256.69;2081389;28;20041;-72
2023/04/19 02:15:44;;;;;;;11.85;7.72;;;;;;;-146.25;81.37;52276.97;2088553;28;20034;-71
2023/04/19 02:16:47;;;;;;;13.02;7.75;;;;;;;-146.25;81.91;52220.19;2088707;28;20109;-73
2023/04/19 02:17:49;;;;;;;16.60;8.18;;;;;;;-146.25;81.26;52266.81;2081993;28;20256;-72
2023/04/19 02:18:52;;;;;;;11.20;7.30;;;;;;;-146.25;81.96;52270.88;2088977;28;20041;-71
2023/04/19 02:19:55;;;;;;;12.88;6.70;;;;;;;-146.25;81.26;52258.72;2096928;28;20037;-72
2023/04/19 02:21:00;;;;;;;10.80;6.90;;;;;;;-146.25;81.08;52260.72;2096985;28;26377;-72
2023/04/19 02:22:02;;;;;;;14.00;6.55;;;;;;;-146.25;81.50;52266.81;2096389;28;34114;-71
2023/04/19 02:23:04;;;;;;;9.63;6.00;;;;;;;-146.25;81.42;52234.38;2096704;28;30903;-71
2023/04/19 02:24:07;;;;;;;12.15;6.15;;;;;;;-146.25;81.37;52234.38;2105047;28;20087;-71
2023/04/19 02:25:09;;;;;;;10.85;6.00;;;;;;;-146.25;81.12;52240.47;2096468;28;20117;-72
2023/04/19 02:26:13;;;;;;;9.82;6.70;;;;;;;-146.25;81.37;52250.59;2088949;28;20936;-71
2023/04/19 02:27:17;;;;;;;10.38;6.15;;;;;;;-146.25;81.05;52276.97;2080660;28;20049;-71
2023/04/19 02:28:18;;;;;;;12.80;6.00;;;;;;;-146.25;80.79;52272.91;2088537;28;27170;-71
2023/04/19 02:29:20;;;;;;;9.32;5.85;;;;;;;-146.25;80.98;52250.59;2097245;28;30089;-71
2023/04/19 02:30:22;;;;;;;8.88;5.90;;;;;;;-146.25;80.62;52214.09;2096779;28;20806;-71
2023/04/19 02:31:24;;;;;;;8.88;5.95;;;;;;;-146.25;80.64;52232.34;2096593;28;20162;-71
2023/04/19 02:32:26;;;;;;;11.05;5.68;;;;;;;-146.25;80.32;52262.75;2096790;28;28519;-71
2023/04/19 02:33:28;;;;;;;9.35;5.95;;;;;;;-146.25;80.57;52264.78;2097290;28;28661;-71
2023/04/19 02:34:29;;;;;;;7.72;5.63;;;;;;;-146.25;80.60;52254.66;2104727;28;29113;-72
2023/04/19 02:35:33;;;;;;;8.80;5.53;;;;;;;-146.25;80.70;52230.31;2096964;28;20033;-70
2023/04/19 02:36:35;;;;;;;10.82;5.80;;;;;;;-146.25;80.95;52289.13;2088508;28;20049;-72
2023/04/19 02:37:37;;;;;;;8.23;5.10;;;;;;;-146.25;81.07;52242.50;2087920;28;26047;-71
2023/04/19 02:38:39;;;;;;;11.00;6.03;;;;;;;-146.25;80.95;52240.47;2096359;28;28116;-71
2023/04/19 02:39:41;;;;;;;8.93;5.65;;;;;;;-146.25;81.08;52248.56;2095747;28;29293;-71
2023/04/19 02:40:43;;;;;;;8.98;5.80;;;;;;;-146.25;80.61;52256.69;2079653;28;31059;-72
2023/04/19 02:41:45;;;;;;;8.52;5.47;;;;;;;-146.25;81.21;52224.25;2088465;28;20049;-72
2023/04/19 02:42:46;;;;;;;8.40;5.00;;;;;;;-146.25;81.14;52254.66;2105327;28;29884;-71
2023/04/19 02:43:48;;;;;;;9.40;6.03;;;;;;;-146.25;80.86;52252.63;2097291;28;27467;-72
2023/04/19 02:44:50;;;;;;;10.02;5.47;;;;;;;-146.25;81.23;52252.63;2096595;28;20281;-72
2023/04/19 02:45:52;;;;;;;8.95;6.22;;;;;;;-146.25;81.44;52230.31;2096566;28;30618;-71
2023/04/19 02:46:56;;;;;;;10.13;5.75;;;;;;;-146.25;80.95;52250.59;2096597;28;20147;-72
2023/04/19 02:48:01;;;;;;;10.70;6.00;;;;;;;-146.25;81.09;52258.72;2096776;28;20041;-71
2023/04/19 02:49:03;;;;;;;9.05;6.15;;;;;;;-146.25;80.90;52262.75;2096705;28;20041;-71
2023/04/19 02:50:05;;;;;;;8.63;5.85;;;;;;;-146.25;81.08;52272.91;2096765;28;20045;-71
2023/04/19 02:51:16;;;;;;;9.55;6.03;;;;;;;-146.25;81.57;52266.81;2104486;28;20841;-72
2023/04/19 02:52:18;;;;;;;11.15;5.60;;;;;;;-146.25;81.39;52272.91;2097007;28;20064;-72
2023/04/19 02:53:20;;;;;;;9.13;5.80;;;;;;;-146.25;82.29;52287.09;2088048;28;20042;-72
2023/04/19 02:54:23;;;;;;;11.80;5.88;;;;;;;-146.25;82.53;52206.00;2088359;28;20877;-71
2023/04/19 02:55:26;;;;;;;9.05;5.63;;;;;;;-146.25;82.56;52214.09;2088362;28;20183;-72
2023/04/19 02:56:38;;;;;;;8.90;5.72;;;;;;;-146.25;82.88;52234.38;2098358;28;20148;-72
2023/04/19 02:57:40;;;;;;;9.40;6.07;;;;;;;-146.25;83.42;52242.50;2088129;28;20811;-71
2023/04/19 02:58:44;;;;;;;9.77;6.07;;;;;;;-146.25;83.35;52276.97;2081193;28;20077;-71
2023/04/19 02:59:46;;;;;;;9.65;6.32;;;;;;;-146.25;83.16;52258.72;2087709;28;20343;-70
2023/04/19 03:00:48;;;;;;;10.93;5.95;;;;;;;-146.25;83.74;52240.47;2088342;28;20634;-72
2023/04/19 03:01:54;;;;;;;8.02;5.60;;;;;;;-146.25;83.88;52270.88;2096577;28;20837;-70
2023/04/19 03:02:57;;;;;;;8.45;5.90;;;;;;;-146.25;83.93;52276.97;2096566;28;20171;-71
2023/04/19 03:04:00;;;;;;;10.55;5.95;;;;;;;-146.25;83.72;52252.63;2096270;28;20177;-71
2023/04/19 03:05:05;;;;;;;9.23;5.88;;;;;;;-146.25;83.91;52264.78;2096873;28;20049;-71
2023/04/19 03:06:07;;;;;;;10.93;6.28;;;;;;;-146.25;84.53;52236.41;2096957;28;20041;-72
2023/04/19 03:07:09;;;;;;;9.77;5.95;;;;;;;-146.25;83.81;52272.91;2096774;28;20222;-71
2023/04/19 03:08:12;;;;;;;9.48;5.80;;;;;;;-146.25;83.87;52299.25;2088231;28;20509;-71
2023/04/19 03:09:16;;;;;;;9.35;5.85;;;;;;;-146.25;84.43;52274.94;2088524;28;20364;-71
2023/04/19 03:10:18;;;;;;;12.13;6.30;;;;;;;-146.25;84.52;52270.88;2088125;28;31373;-72
2023/04/19 03:11:20;;;;;;;8.75;6.30;;;;;;;-146.25;84.37;52254.66;2087769;28;20037;-73
2023/04/19 03:12:22;;;;;;;11.60;6.45;;;;;;;-146.25;84.75;52250.59;2096154;28;32019;-72
2023/04/19 03:13:24;;;;;;;9.23;5.63;;;;;;;-146.25;84.58;52232.34;2096484;28;20040;-72
2023/04/19 03:14:26;;;;;;;10.50;5.88;;;;;;;-146.25;84.40;52244.50;2087082;28;28814;-71
2023/04/19 03:15:28;;;;;;;9.80;5.50;;;;;;;-146.25;83.85;52226.25;2088316;28;20707;-72
2023/04/19 03:16:35;;;;;;;16.55;6.13;;;;;;;-146.25;84.32;52295.19;2096227;28;20055;-72
2023/04/19 03:17:37;;;;;;;11.20;5.75;;;;;;;-146.25;84.32;52258.72;2088494;28;20045;-72
2023/04/19 03:18:42;;;;;;;7.88;5.38;;;;;;;-146.25;84.11;52268.84;2081342;28;20088;-72
2023/04/19 03:19:44;;;;;;;8.48;5.10;;;;;;;-146.25;84.08;52242.50;2088566;28;20037;-72
2023/04/19 03:20:49;;;;;;;7.28;5.55;;;;;;;-146.25;83.64;52258.72;2096529;28;20134;-71
2023/04/19 03:21:51;;;;;;;9.90;5.80;;;;;;;-146.25;83.78;52244.50;2096590;28;20114;-71
2023/04/19 03:22:55;;;;;;;9.45;5.43;;;;;;;-146.25;83.52;52254.66;2087423;28;20906;-72
2023/04/19 03:23:56;;;;;;;8.85;5.90;;;;;;;-146.25;83.34;52287.09;2097060;28;20044;-72
2023/04/19 03:25:02;;;;;;;8.20;4.97;;;;;;;-146.25;82.92;52244.50;2096297;28;20906;-72
2023/04/19 03:26:03;;;;;;;9.35;5.38;;;;;;;-146.25;83.41;52250.59;2096945;28;20045;-71
2023/04/19 03:27:16;;;;;;;8.50;5.10;;;;;;;-146.25;82.99;52252.63;2087663;28;20053;-72
2023/04/19 03:28:21;;;;;;;8.48;5.63;;;;;;;-146.25;83.23;52242.50;2090570;28;20049;-72
2023/04/19 03:29:47;;;;;;;8.20;5.13;;;;;;;-146.25;83.21;52246.53;2083332;28;20041;-72
2023/04/19 03:30:49;;;;;;;11.35;5.20;;;;;;;-146.25;83.03;52244.50;2083591;28;20891;-72
2023/04/19 03:31:51;;;;;;;8.77;5.63;;;;;;;-146.25;83.01;52254.66;2087924;28;20041;-72
2023/04/19 03:32:53;;;;;;;9.07;5.68;;;;;;;-146.25;83.16;52240.47;2088241;28;20134;-72
2023/04/19 03:33:55;;;;;;;9.90;5.63;;;;;;;-146.25;83.46;52230.31;2088126;28;20037;-72
2023/04/19 03:35:02;;;;;;;10.85;5.75;;;;;;;-146.25;83.72;52254.66;2097307;28;20033;-72
2023/04/19 03:36:07;;;;;;;9.40;5.78;;;;;;;-146.25;83.83;52281.00;2104658;28;24921;-72
2023/04/19 03:37:09;;;;;;;7.72;5.25;;;;;;;-146.25;83.98;52289.13;2096270;28;20059;-72
2023/04/19 03:38:11;;;;;;;8.30;5.60;;;;;;;-146.25;84.01;52283.03;2088216;28;20049;-72
2023/04/19 03:39:13;;;;;;;11.63;5.93;;;;;;;-146.25;84.44;52248.56;2096372;28;20984;-72
2023/04/19 03:40:20;;;;;;;8.80;5.75;;;;;;;-146.25;84.55;52270.88;2096449;28;20083;-72
2023/04/19 03:41:26;;;;;;;10.88;5.78;;;;;;;-146.25;84.35;52220.19;2096237;28;20118;-72
2023/04/19 03:42:48;;;;;;;13.50;5.72;;;;;;;-146.25;84.48;52240.47;2096503;28;20740;-72
2023/04/19 03:44:02;;;;;;;9.07;5.80;;;;;;;-146.25;84.75;52266.81;2096095;28;20037;-72
2023/04/19 03:45:05;;;;;;;10.35;5.90;;;;;;;-146.25;84.96;52250.59;2088215;28;20974;-71
2023/04/19 03:46:11;;;;;;;7.72;5.53;;;;;;;-146.25;85.04;52252.63;2096737;28;20037;-72
2023/04/19 03:47:13;;;;;;;10.27;6.30;;;;;;;-146.25;84.98;52177.59;2096525;28;20037;-72
2023/04/19 03:48:19;;;;;;;9.50;5.97;;;;;;;-146.25;84.99;52254.66;2088272;28;20034;-72
2023/04/19 03:49:20;;;;;;;7.78;5.68;;;;;;;-146.25;85.20;52242.50;2096047;28;26285;-72
2023/04/19 03:50:31;;;;;;;9.35;5.82;;;;;;;-146.25;84.99;52258.72;2096372;28;20080;-72
2023/04/19 03:51:33;;;;;;;9.45;5.40;;;;;;;-146.25;85.68;52230.31;2088731;28;20051;-72
2023/04/19 03:52:35;;;;;;;8.77;5.72;;;;;;;-146.25;85.51;52210.03;2088577;28;20037;-72
2023/04/19 03:53:37;;;;;;;8.00;5.40;;;;;;;-146.25;85.72;52242.50;2096573;28;20040;-72
2023/04/19 03:54:41;;;;;;;10.45;5.80;;;;;;;-146.25;85.68;52268.84;2104435;28;20896;-72
2023/04/19 03:55:52;;;;;;;9.43;5.43;;;;;;;-146.25;85.79;52246.53;2096315;28;20048;-72
2023/04/19 03:56:56;;;;;;;7.68;5.55;;;;;;;-146.25;85.94;52254.66;2088023;28;20030;-72
2023/04/19 03:57:58;;;;;;;9.35;5.50;;;;;;;-146.25;86.58;52291.16;2087953;28;20964;-72
2023/04/19 03:59:12;;;;;;;9.32;6.03;;;;;;;-146.25;86.42;52252.63;2089588;28;20164;-72
2023/04/19 04:00:16;;;;;;;8.20;5.80;;;;;;;-146.25;86.21;52311.44;2087996;28;20073;-70
2023/04/19 04:01:23;;;;;;;9.95;5.97;;;;;;;-146.25;86.46;52283.03;2089011;28;20045;-71
2023/04/19 04:02:26;;;;;;;8.10;5.53;;;;;;;-146.25;86.57;52270.88;2095506;28;20049;-72
2023/04/19 04:03:30;;;;;;;9.63;5.95;;;;;;;-146.25;86.93;52250.59;2088210;28;20085;-70
2023/04/19 04:04:32;;;;;;;9.63;5.97;;;;;;;-146.25;86.57;52234.38;2080001;28;20045;-71
2023/04/19 04:05:35;;;;;;;10.68;6.03;;;;;;;-146.25;86.69;52242.50;2080600;28;20050;-71
2023/04/19 04:06:37;;;;;;;7.82;6.10;;;;;;;-146.25;86.91;52246.53;2087914;28;20050;-71
2023/04/19 04:07:41;;;;;;;9.27;5.95;;;;;;;-146.25;86.52;52268.84;2087801;28;21802;-71
2023/04/19 04:08:43;;;;;;;10.27;5.40;;;;;;;-146.25;87.09;52262.75;2088199;28;20037;-71
2023/04/19 04:09:46;;;;;;;9.40;6.10;;;;;;;-146.25;86.85;52260.72;2096099;28;20060;-71
2023/04/19 04:10:48;;;;;;;10.23;5.65;;;;;;;-146.25;87.17;52268.84;2087873;28;20041;-71
2023/04/19 04:11:50;;;;;;;11.98;5.65;;;;;;;-146.25;87.11;52274.94;2087957;28;20914;-71
2023/04/19 04:12:52;;;;;;;8.95;6.18;;;;;;;-146.25;86.96;52295.19;2087756;28;20160;-71
2023/04/19 04:14:00;;;;;;;9.25;5.45;;;;;;;-146.25;86.92;52240.47;2097477;28;20989;-71
2023/04/19 04:15:08;;;;;;;7.55;5.50;;;;;;;-146.25;87.01;52250.59;2096349;28;20048;-71
2023/04/19 04:16:16;;;;;;;11.32;6.05;;;;;;;-146.25;87.44;52236.41;2089365;28;20025;-73
2023/04/19 04:17:18;;;;;;;10.05;6.15;;;;;;;-146.25;87.65;52260.72;2096116;28;20163;-71
2023/04/19 04:18:20;;;;;;;11.85;5.85;;;;;;;-146.25;87.47;52287.09;2096342;28;20188;-72
2023/04/19 04:19:22;;;;;;;11.27;6.07;;;;;;;-146.25;87.75;52248.56;2079627;28;20038;-71
2023/04/19 04:20:24;;;;;;;8.95;6.05;;;;;;;-146.25;87.61;52238.44;2087908;28;20046;-71
2023/04/19 04:21:32;;;;;;;8.48;5.55;;;;;;;-146.25;87.05;52285.06;2080105;28;20272;-70
2023/04/19 04:22:41;;;;;;;7.90;5.78;;;;;;;-146.25;87.15;52270.88;2087809;28;20999;-71
2023/04/19 04:23:46;;;;;;;10.07;5.60;;;;;;;-146.25;87.39;52262.75;2104315;28;20197;-69
2023/04/19 04:25:00;;;;;;;8.35;5.75;;;;;;;-146.25;87.41;52299.25;2094158;28;20041;-71
2023/04/19 04:26:12;;;;;;;8.38;5.50;;;;;;;-146.25;87.14;52274.94;2097448;28;20045;-70
2023/04/19 04:27:27;;;;;;;9.80;6.18;;;;;;;-146.25;87.30;52250.59;2093914;28;20029;-72
2023/04/19 04:28:29;;;;;;;8.73;5.32;;;;;;;-146.25;86.65;52272.91;2087650;28;24124;-72
2023/04/19 04:29:32;;;;;;;10.40;5.78;;;;;;;-146.25;87.39;52270.88;2088227;28;22171;-71
2023/04/19 04:30:36;;;;;;;7.72;5.57;;;;;;;-146.25;86.91;52276.97;2096181;28;20048;-71
2023/04/19 04:31:41;;;;;;;10.27;6.05;;;;;;;-146.25;86.56;52270.88;2104322;28;20952;-71
2023/04/19 04:32:45;;;;;;;11.20;5.93;;;;;;;-146.25;86.38;52218.16;2104291;28;20039;-71
2023/04/19 04:33:47;;;;;;;8.30;5.70;;;;;;;-146.25;86.85;52264.78;2095890;28;20033;-71
2023/04/19 04:34:52;;;;;;;11.05;5.70;;;;;;;-146.25;86.75;52246.53;2088089;28;20041;-71
2023/04/19 04:36:04;;;;;;;8.98;5.45;;;;;;;-146.25;86.49;52226.25;2097116;28;20232;-71
2023/04/19 04:37:07;;;;;;;9.52;5.25;;;;;;;-146.25;86.01;52270.88;2095855;28;20041;-72
2023/04/19 04:38:12;;;;;;;9.05;5.63;;;;;;;-146.25;85.53;52266.81;2080199;28;20045;-72
2023/04/19 04:39:25;;;;;;;8.63;5.68;;;;;;;-146.25;84.82;52293.19;2095870;28;20045;-71
2023/04/19 04:40:27;;;;;;;7.95;5.32;;;;;;;-146.25;84.36;52270.88;2095883;28;20107;-70
2023/04/19 04:41:30;;;;;;;6.95;5.22;;;;;;;-146.25;84.22;52295.19;2096071;28;20025;-71
2023/04/19 04:42:32;;;;;;;9.00;4.95;;;;;;;-146.25;84.17;52254.66;2095737;28;20452;-71
2023/04/19 04:43:34;;;;;;;8.30;4.57;;;;;;;-146.25;83.57;52254.66;2087919;28;20034;-71
2023/04/19 04:44:37;;;;;;;10.82;5.18;;;;;;;-146.25;83.62;52262.75;2095886;28;20049;-71
2023/04/19 04:45:43;;;;;;;9.38;5.65;;;;;;;-146.25;83.63;52287.09;2079289;28;20831;-72
2023/04/19 04:46:48;;;;;;;7.78;5.55;;;;;;;-146.25;83.86;52264.78;2080728;28;20157;-71
2023/04/19 04:47:55;;;;;;;7.40;5.32;;;;;;;-146.25;83.49;52287.09;2089805;28;20103;-72
2023/04/19 04:48:56;;;;;;;10.63;5.90;;;;;;;-146.25;83.88;52254.66;2079272;28;20949;-72